Charter Quote
Worldwide +1-877-727-2538 Call
Select Language Lang
SAFETY RELIABILITY EXPERIENCE

Campo De Mayo Airport (SADO) - Jet Charter Services

AIRPORT INFORMATION
ICAOSADO
LOCATIONSan Miguel (Tucuman), Argentina
FACILITY TYPEAIRPORT
Runway Length (ft) Width (ft) Surface Type Elevation (ft)
36/18 5774 90 ASP 78.95082

At Paramount Business Jets you can hire chartered private jets to and from Campo De Mayo Airport with as little as 4 hours of notice. All flights booked via Paramount Business Jets are operated by certified direct air carriers that meet and exceed the FAA part 135 and 121 protocol or a foreign equivalent safety authority. Furthermore, Paramount Business Jets subscribes to ARGUS for their third party safety checks of operators, aircraft, and crews prior each and every flight to and from Campo De Mayo Airport and worldwide.

  • Quote a trip using Campo De Mayo Airport or call us 24/7 - 365 days a year at +1-877-727-2538.
Questions? Call +1-877-727-2538

METAR Weather Data at Campo De Mayo Airport, SADO

STATIONSADO
OBSERVEDTue Jan 15, 18:30 UTC
NOWWed Jan 23, 21:49 UTC
AGE195:19 hr ago
WINDSE at 3 mph
VISIBILITY13 miles
CONDITIONSlight rain
CLOUDSmostly cloudy
TEMP75°F (24°C)
DEWPT73°F (23°C)
HUMIDITY94%
BAROMETER1009 hPa (29.8 in Hg)
METARSADO 151830Z 14003KT 8000 -RA BKN015 24/23 Q1009

Call us on +1-877-727-2538 (24 Hours) to Hire a Private Jet or Get a Quick Quote.

Find Airports Near any Location

Processing
...